createdAt,value
2023-05-22T00:00:13.888Z,4.10
2023-05-22T00:02:43.980Z,3.25
2023-05-22T00:05:18.320Z,3.05
2023-05-22T00:07:47.053Z,3.30
2023-05-22T00:10:15.697Z,3.67
2023-05-22T00:12:44.305Z,2.17
2023-05-22T00:15:13.485Z,3.17
2023-05-22T00:17:42.316Z,3.03
2023-05-22T00:20:11.700Z,3.28
2023-05-22T00:22:42.353Z,3.20
2023-05-22T00:25:12.332Z,3.50
2023-05-22T00:27:40.933Z,1.85
2023-05-22T00:30:10.580Z,1.55
2023-05-22T00:32:40.717Z,1.55
2023-05-22T00:35:10.686Z,1.50
2023-05-22T00:37:40.643Z,1.50
2023-05-22T00:40:10.668Z,1.60
2023-05-22T00:42:39.393Z,1.50
2023-05-22T00:45:09.086Z,1.88
2023-05-22T00:47:37.784Z,1.30
2023-05-22T00:50:07.270Z,1.60
2023-05-22T00:52:38.665Z,1.50
2023-05-22T00:55:10.420Z,1.40
2023-05-22T00:57:42.027Z,3.23
2023-05-22T01:00:12.145Z,1.42
2023-05-22T01:02:43.100Z,1.50
2023-05-22T01:05:18.176Z,3.00
2023-05-22T01:07:47.146Z,1.80
2023-05-22T01:10:17.079Z,1.60
2023-05-22T01:12:56.476Z,1.70
2023-05-22T01:15:33.111Z,3.15
2023-05-22T01:18:11.310Z,1.60
2023-05-22T01:20:48.976Z,2.78
2023-05-22T01:23:54.295Z,3.30
2023-05-22T01:26:47.330Z,2.08
2023-05-22T01:29:40.075Z,2.90
2023-05-22T01:32:14.238Z,2.00
2023-05-22T01:34:47.732Z,2.05
2023-05-22T01:37:17.726Z,2.58
2023-05-22T01:39:47.326Z,2.45
2023-05-22T01:42:16.157Z,3.67
2023-05-22T01:44:44.869Z,1.75
2023-05-22T01:47:15.110Z,3.10
2023-05-22T01:49:44.204Z,1.50
2023-05-22T01:52:20.544Z,2.28
2023-05-22T01:54:54.863Z,1.70
2023-05-22T01:57:29.678Z,1.50
2023-05-22T02:00:09.958Z,1.60
2023-05-22T02:02:43.333Z,1.60
2023-05-22T02:05:13.752Z,1.60
2023-05-22T02:07:44.489Z,1.70
2023-05-22T02:10:14.491Z,1.60
2023-05-22T02:12:43.248Z,1.52
2023-05-22T02:15:12.278Z,1.60
2023-05-22T02:17:42.648Z,1.60
2023-05-22T02:20:14.574Z,1.67
2023-05-22T02:22:44.556Z,1.50
2023-05-22T02:25:14.650Z,1.70
2023-05-22T02:27:44.153Z,1.70
2023-05-22T02:30:13.791Z,1.85
2023-05-22T02:32:44.095Z,1.70
2023-05-22T02:35:12.789Z,1.52
2023-05-22T02:37:42.304Z,1.40
2023-05-22T02:40:11.766Z,1.77
2023-05-22T02:42:40.355Z,1.73
2023-05-22T02:45:10.181Z,1.60
2023-05-22T02:47:38.802Z,1.60
2023-05-22T02:50:09.755Z,1.52
2023-05-22T02:52:39.363Z,1.60
2023-05-22T02:55:09.040Z,1.55
2023-05-22T02:57:37.890Z,1.57
2023-05-22T03:00:07.965Z,2.15
2023-05-22T03:02:36.702Z,1.67
2023-05-22T03:05:05.884Z,1.65
2023-05-22T03:07:35.887Z,1.50
2023-05-22T03:10:04.694Z,1.63
2023-05-22T03:12:33.380Z,2.20
2023-05-22T03:15:01.962Z,1.50
2023-05-22T03:17:30.584Z,1.60
2023-05-22T03:19:59.207Z,1.40
2023-05-22T03:22:27.727Z,1.40
2023-05-22T03:24:57.643Z,1.60
2023-05-22T03:27:26.250Z,1.30
2023-05-22T03:29:54.833Z,1.60
2023-05-22T03:32:23.494Z,1.35
2023-05-22T03:34:52.095Z,1.57
2023-05-22T03:37:20.720Z,1.40
2023-05-22T03:39:49.295Z,1.50
2023-05-22T03:42:19.221Z,1.40
2023-05-22T03:44:49.331Z,1.27
2023-05-22T03:47:18.098Z,1.50
2023-05-22T03:49:47.012Z,1.50
2023-05-22T03:52:15.699Z,1.47
2023-05-22T03:54:44.220Z,1.30
2023-05-22T03:57:12.778Z,1.50
2023-05-22T03:59:42.703Z,1.40
2023-05-22T04:02:13.003Z,1.50
2023-05-22T04:04:41.713Z,1.40
2023-05-22T04:07:13.322Z,1.50
2023-05-22T04:09:42.347Z,1.30
2023-05-22T04:12:11.486Z,1.38
2023-05-22T04:14:41.495Z,1.40
2023-05-22T04:17:11.650Z,1.33
2023-05-22T04:19:40.218Z,1.30
2023-05-22T04:22:08.753Z,1.33
2023-05-22T04:24:39.846Z,1.40
2023-05-22T04:27:08.452Z,1.30
2023-05-22T04:29:37.462Z,1.30
2023-05-22T04:32:10.574Z,1.40
2023-05-22T04:34:39.220Z,1.35
2023-05-22T04:37:07.832Z,1.27
2023-05-22T04:39:36.399Z,1.40
2023-05-22T04:42:05.984Z,1.55
2023-05-22T04:44:35.331Z,1.40
2023-05-22T04:47:08.226Z,1.38
2023-05-22T04:49:38.520Z,1.40
2023-05-22T04:52:07.729Z,1.40
2023-05-22T04:54:36.482Z,1.50
2023-05-22T04:57:05.539Z,1.40
2023-05-22T04:59:37.963Z,1.50
2023-05-22T05:02:06.891Z,1.38
2023-05-22T05:04:37.307Z,1.60
2023-05-22T05:07:07.076Z,1.38
2023-05-22T05:09:35.689Z,1.40
2023-05-22T05:12:04.735Z,1.48
2023-05-22T05:14:35.066Z,1.40
2023-05-22T05:17:04.690Z,1.50
2023-05-22T05:19:36.235Z,1.60
2023-05-22T05:22:07.201Z,1.50
2023-05-22T05:24:35.805Z,1.50
2023-05-22T05:27:04.753Z,1.42
2023-05-22T05:29:33.293Z,2.05
2023-05-22T05:32:01.929Z,1.95
2023-05-22T05:34:30.530Z,1.60
2023-05-22T05:36:59.612Z,1.40
2023-05-22T05:39:29.608Z,1.50
2023-05-22T05:41:58.335Z,2.25
2023-05-22T05:44:26.921Z,1.50
2023-05-22T05:46:55.849Z,1.50
2023-05-22T05:49:24.471Z,1.50
2023-05-22T05:51:52.968Z,1.50
2023-05-22T05:54:21.788Z,1.75
2023-05-22T05:56:51.413Z,2.30
2023-05-22T05:59:19.734Z,1.70
2023-05-22T06:01:48.280Z,3.40
2023-05-22T06:04:16.637Z,2.30
2023-05-22T06:06:44.869Z,2.83
2023-05-22T06:09:13.153Z,2.20
2023-05-22T06:11:41.388Z,1.90
2023-05-22T06:14:11.145Z,3.17
2023-05-22T06:16:39.417Z,2.13
2023-05-22T06:19:08.014Z,5.63
2023-05-22T06:21:36.375Z,5.30
2023-05-22T06:24:04.970Z,4.05
2023-05-22T06:26:33.439Z,2.50
2023-05-22T06:29:01.722Z,2.93
2023-05-22T06:31:32.161Z,2.73
2023-05-22T06:34:00.485Z,3.53
2023-05-22T06:36:28.944Z,3.90
2023-05-22T06:38:57.180Z,4.03
2023-05-22T06:41:26.210Z,4.10
2023-05-22T06:43:54.458Z,1.90
2023-05-22T06:46:25.784Z,5.25
2023-05-22T06:48:56.086Z,5.93
2023-05-22T06:51:24.516Z,4.55
2023-05-22T06:53:52.931Z,6.37
2023-05-22T06:56:22.842Z,5.57
2023-05-22T06:58:51.116Z,4.05
2023-05-22T07:01:19.506Z,3.77
2023-05-22T07:03:47.768Z,4.40
2023-05-22T07:06:18.383Z,3.90
2023-05-22T07:08:46.759Z,4.55
2023-05-22T07:11:15.030Z,4.90
2023-05-22T07:13:43.290Z,6.60
2023-05-22T07:16:11.547Z,5.45
2023-05-22T07:18:40.445Z,5.40
2023-05-22T07:21:08.746Z,2.80
2023-05-22T07:23:38.376Z,4.60
2023-05-22T07:26:07.902Z,7.22
2023-05-22T07:28:36.202Z,6.90
2023-05-22T07:31:04.507Z,5.00
2023-05-22T07:33:32.877Z,5.57
2023-05-22T07:36:01.114Z,6.90
2023-05-22T07:38:29.445Z,5.20
2023-05-22T07:40:59.041Z,7.30
2023-05-22T07:43:27.349Z,6.93
2023-05-22T07:45:55.655Z,8.30
2023-05-22T07:48:23.939Z,9.20
2023-05-22T07:50:52.185Z,8.13
2023-05-22T07:53:20.864Z,6.90
2023-05-22T07:55:49.227Z,9.15
2023-05-22T07:58:19.707Z,8.65
2023-05-22T08:00:47.965Z,7.22
2023-05-22T08:03:17.538Z,7.45
2023-05-22T08:05:46.555Z,4.80
2023-05-22T08:08:14.934Z,8.93
2023-05-22T08:10:58.264Z,4.78
2023-05-22T08:13:32.846Z,6.35
2023-05-22T08:16:01.567Z,5.55
2023-05-22T08:18:30.702Z,4.85
2023-05-22T08:21:00.295Z,9.70
2023-05-22T08:23:28.638Z,7.88
2023-05-22T08:25:57.233Z,8.52
2023-05-22T08:28:25.639Z,8.77
2023-05-22T08:30:55.472Z,7.82
2023-05-22T08:33:23.791Z,7.68
2023-05-22T08:35:52.067Z,8.00
2023-05-22T08:38:20.912Z,8.70
2023-05-22T08:40:50.569Z,6.80
2023-05-22T08:43:21.290Z,6.67
2023-05-22T08:45:57.962Z,5.45
2023-05-22T08:48:29.978Z,5.63
2023-05-22T08:51:00.246Z,7.72
2023-05-22T08:53:30.547Z,6.63
2023-05-22T08:55:58.950Z,7.22
2023-05-22T08:58:28.330Z,8.03
2023-05-22T09:00:58.384Z,7.53
2023-05-22T09:03:32.975Z,9.18
2023-05-22T09:06:01.710Z,7.10
2023-05-22T09:08:30.086Z,8.03
2023-05-22T09:10:58.406Z,6.20
2023-05-22T09:13:28.489Z,8.02
2023-05-22T09:16:08.508Z,6.63
2023-05-22T09:18:38.258Z,7.20
2023-05-22T09:21:17.746Z,9.73
2023-05-22T09:23:55.531Z,6.53
2023-05-22T09:26:27.841Z,5.22
2023-05-22T09:28:57.121Z,5.80
2023-05-22T09:31:27.675Z,7.97
2023-05-22T09:33:56.987Z,5.90
2023-05-22T09:36:33.477Z,8.70
2023-05-22T09:39:02.463Z,5.82
2023-05-22T09:41:32.191Z,6.53
2023-05-22T09:44:01.934Z,6.85
2023-05-22T09:46:32.056Z,9.38
2023-05-22T09:49:03.263Z,9.40
2023-05-22T09:51:31.844Z,4.80
2023-05-22T09:54:06.726Z,9.77
2023-05-22T09:56:40.149Z,9.60
2023-05-22T09:59:10.874Z,5.25
2023-05-22T10:01:42.675Z,4.53
2023-05-22T10:04:15.017Z,8.48
2023-05-22T10:06:49.806Z,6.07
2023-05-22T10:09:22.573Z,8.93
2023-05-22T10:11:53.651Z,6.82
2023-05-22T10:14:22.222Z,7.75
2023-05-22T10:16:52.653Z,6.05
2023-05-22T10:19:21.177Z,6.75
2023-05-22T10:21:51.244Z,5.60
2023-05-22T10:24:19.858Z,8.10
2023-05-22T10:26:48.664Z,9.70
2023-05-22T10:29:23.310Z,7.75
2023-05-22T10:32:03.985Z,5.95
2023-05-22T10:34:41.529Z,7.47
2023-05-22T10:37:25.722Z,12.25
2023-05-22T10:40:04.674Z,9.10
2023-05-22T10:42:33.369Z,9.57
2023-05-22T10:45:03.194Z,8.98
2023-05-22T10:47:35.273Z,8.48
2023-05-22T10:50:10.132Z,9.63
2023-05-22T10:52:39.558Z,8.18
2023-05-22T10:55:09.693Z,10.43
2023-05-22T10:57:40.316Z,8.57
2023-05-22T11:00:14.167Z,10.18
2023-05-22T11:02:46.764Z,4.78
2023-05-22T11:05:37.632Z,8.33
2023-05-22T11:08:48.606Z,6.03
2023-05-22T11:11:16.894Z,7.38
2023-05-22T11:13:45.232Z,5.88
2023-05-22T11:16:13.779Z,8.20
2023-05-22T11:18:45.292Z,6.72
2023-05-22T11:21:14.563Z,8.70
2023-05-22T11:23:43.348Z,5.97
2023-05-22T11:26:26.303Z,6.72
2023-05-22T11:28:56.676Z,6.03
2023-05-22T11:31:26.473Z,4.63
2023-05-22T11:33:56.378Z,7.80
2023-05-22T11:36:25.195Z,7.83
2023-05-22T11:38:59.864Z,8.25
2023-05-22T11:41:34.063Z,8.20
2023-05-22T11:44:03.207Z,6.25
2023-05-22T11:46:31.519Z,9.70
2023-05-22T11:49:01.332Z,7.43
2023-05-22T11:51:29.757Z,7.03
2023-05-22T11:53:59.002Z,7.28
2023-05-22T11:56:27.369Z,6.05
2023-05-22T11:58:55.716Z,7.68
2023-05-22T12:01:24.080Z,9.20
2023-05-22T12:03:52.443Z,10.47
2023-05-22T12:06:22.344Z,6.75
2023-05-22T12:08:50.835Z,6.87
2023-05-22T12:11:19.136Z,8.70
2023-05-22T12:13:47.512Z,9.73
2023-05-22T12:16:23.053Z,9.43
2023-05-22T12:18:54.625Z,8.05
2023-05-22T12:21:24.367Z,10.13
2023-05-22T12:23:53.293Z,7.07
2023-05-22T12:26:21.655Z,9.10
2023-05-22T12:28:53.593Z,7.30
2023-05-22T12:31:22.878Z,6.60
2023-05-22T12:33:54.722Z,7.22
2023-05-22T12:36:35.544Z,8.00
2023-05-22T12:39:08.270Z,6.32
2023-05-22T12:41:36.705Z,8.77
2023-05-22T12:44:05.819Z,6.00
2023-05-22T12:46:35.277Z,9.48
2023-05-22T12:49:03.833Z,6.65
2023-05-22T12:51:33.938Z,6.70
2023-05-22T12:54:03.278Z,6.72
2023-05-22T12:56:32.635Z,4.95
2023-05-22T12:59:01.060Z,5.35
2023-05-22T13:01:29.503Z,7.73
2023-05-22T13:03:57.837Z,9.00
2023-05-22T13:06:27.979Z,7.85
2023-05-22T13:09:02.032Z,4.15
2023-05-22T13:11:30.325Z,7.15
2023-05-22T13:13:58.707Z,4.97
2023-05-22T13:16:27.060Z,8.47
2023-05-22T13:18:55.401Z,7.70
2023-05-22T13:21:25.195Z,7.53
2023-05-22T13:23:54.770Z,6.72
2023-05-22T13:26:24.391Z,7.75
2023-05-22T13:28:52.726Z,6.55
2023-05-22T13:31:21.651Z,7.63
2023-05-22T13:33:49.919Z,7.65
2023-05-22T13:36:19.615Z,5.47
2023-05-22T13:38:48.056Z,5.38
2023-05-22T13:41:17.724Z,5.30
2023-05-22T13:43:47.410Z,7.63
2023-05-22T13:46:15.878Z,4.57
2023-05-22T13:48:44.147Z,5.82
2023-05-22T13:51:12.414Z,5.53
2023-05-22T13:53:40.774Z,5.28
2023-05-22T13:56:09.063Z,5.97
2023-05-22T13:58:37.345Z,5.28
2023-05-22T14:01:07.113Z,7.55
2023-05-22T14:03:35.537Z,8.60
2023-05-22T14:06:03.817Z,7.00
2023-05-22T14:08:32.147Z,8.20
2023-05-22T14:11:01.026Z,6.10
2023-05-22T14:13:29.329Z,7.13
2023-05-22T14:15:57.622Z,5.63
2023-05-22T14:18:27.300Z,7.20
2023-05-22T14:20:55.645Z,6.30
2023-05-22T14:23:24.012Z,8.50
2023-05-22T14:25:52.372Z,4.68
2023-05-22T14:28:20.695Z,7.57
2023-05-22T14:30:49.036Z,4.65
2023-05-22T14:33:17.358Z,7.22
2023-05-22T14:35:48.453Z,7.68
2023-05-22T14:38:16.712Z,7.37
2023-05-22T14:40:45.032Z,7.32
2023-05-22T14:43:13.352Z,8.95
2023-05-22T14:45:41.911Z,8.45
2023-05-22T14:48:11.538Z,5.70
2023-05-22T14:50:39.892Z,8.05
2023-05-22T14:53:09.607Z,9.32
2023-05-22T14:55:38.324Z,7.50
2023-05-22T14:58:06.727Z,7.93
2023-05-22T15:00:35.008Z,9.85
2023-05-22T15:03:03.610Z,10.70
2023-05-22T15:05:32.000Z,8.60
2023-05-22T15:08:00.360Z,10.35
2023-05-22T15:10:29.996Z,11.38
2023-05-22T15:12:58.246Z,9.90
2023-05-22T15:15:26.736Z,10.33
2023-05-22T15:17:55.640Z,12.60
2023-05-22T15:20:24.017Z,13.48
2023-05-22T15:22:52.299Z,11.20
2023-05-22T15:25:20.586Z,11.63
2023-05-22T15:27:50.242Z,10.30
2023-05-22T15:30:19.623Z,10.00
2023-05-22T15:32:49.873Z,8.52
2023-05-22T15:35:18.219Z,8.37
2023-05-22T15:37:46.611Z,9.90
2023-05-22T15:40:18.270Z,10.93
2023-05-22T15:42:46.561Z,10.98
2023-05-22T15:45:16.223Z,8.02
2023-05-22T15:47:44.666Z,8.90
2023-05-22T15:50:12.956Z,10.45
2023-05-22T15:52:41.311Z,8.52
2023-05-22T15:55:10.205Z,5.47
2023-05-22T15:57:39.202Z,9.70
2023-05-22T16:00:09.354Z,6.63
2023-05-22T16:02:39.173Z,7.75
2023-05-22T16:05:07.753Z,6.25
2023-05-22T16:07:36.035Z,7.03
2023-05-22T16:10:05.665Z,6.38
2023-05-22T16:12:33.916Z,6.32
2023-05-22T16:15:03.870Z,5.57
2023-05-22T16:17:33.541Z,6.57
2023-05-22T16:20:04.715Z,5.93
2023-05-22T16:22:47.382Z,5.05
2023-05-22T16:25:18.300Z,5.05
2023-05-22T16:27:46.784Z,4.95
2023-05-22T16:30:17.264Z,5.20
2023-05-22T16:32:47.146Z,4.38
2023-05-22T16:35:19.574Z,4.43
2023-05-22T16:37:47.878Z,5.93
2023-05-22T16:40:16.187Z,3.85
2023-05-22T16:42:44.512Z,3.20
2023-05-22T16:45:13.105Z,2.97
2023-05-22T16:47:41.381Z,2.65
2023-05-22T16:50:10.209Z,2.60
2023-05-22T16:52:39.897Z,2.67
2023-05-22T16:55:09.981Z,2.20
2023-05-22T16:57:39.491Z,2.50
2023-05-22T17:00:10.993Z,2.57
2023-05-22T17:02:39.650Z,2.40
2023-05-22T17:05:09.128Z,2.20
2023-05-22T17:07:37.759Z,2.72
2023-05-22T17:10:08.997Z,2.70
2023-05-22T17:12:37.406Z,2.55
2023-05-22T17:15:06.990Z,2.10
2023-05-22T17:17:35.375Z,2.30
2023-05-22T17:20:06.206Z,2.47
2023-05-22T17:22:36.097Z,2.42
2023-05-22T17:25:04.497Z,1.85
2023-05-22T17:27:36.433Z,2.33
2023-05-22T17:30:06.954Z,2.22
2023-05-22T17:32:35.815Z,2.58
2023-05-22T17:35:06.480Z,2.38
2023-05-22T17:37:35.162Z,2.50
2023-05-22T17:40:04.138Z,1.88
2023-05-22T17:42:33.753Z,1.80
2023-05-22T17:45:02.007Z,2.72
2023-05-22T17:47:30.297Z,1.77
2023-05-22T17:49:58.634Z,1.88
2023-05-22T17:52:26.937Z,3.08
2023-05-22T17:54:56.340Z,2.20
2023-05-22T17:57:24.598Z,1.20
2023-05-22T17:59:54.240Z,2.43
2023-05-22T18:02:22.557Z,2.72
2023-05-22T18:04:50.862Z,2.50
2023-05-22T18:07:20.009Z,2.83
2023-05-22T18:09:48.366Z,3.00
2023-05-22T18:12:31.086Z,2.22
2023-05-22T18:15:01.454Z,1.88
2023-05-22T18:17:29.771Z,2.58
2023-05-22T18:19:58.027Z,2.95
2023-05-22T18:22:26.681Z,2.20
2023-05-22T18:24:54.961Z,3.00
2023-05-22T18:27:23.234Z,2.03
2023-05-22T18:29:51.871Z,2.43
2023-05-22T18:32:21.537Z,3.30
2023-05-22T18:34:49.836Z,2.78
2023-05-22T18:37:18.988Z,2.65
2023-05-22T18:39:47.446Z,1.73
2023-05-22T18:42:16.238Z,3.27
2023-05-22T18:44:45.723Z,2.40
2023-05-22T18:47:15.805Z,1.73
2023-05-22T18:49:45.848Z,2.97
2023-05-22T18:52:14.209Z,2.35
2023-05-22T18:54:42.525Z,2.08
2023-05-22T18:57:10.844Z,2.92
2023-05-22T18:59:39.270Z,2.17
2023-05-22T19:02:07.945Z,1.95
2023-05-22T19:04:36.298Z,2.83
2023-05-22T19:07:06.346Z,1.90
2023-05-22T19:09:34.625Z,1.90
2023-05-22T19:12:02.965Z,2.20
2023-05-22T19:14:31.442Z,2.80
2023-05-22T19:17:00.504Z,1.65
2023-05-22T19:19:29.025Z,1.60
2023-05-22T19:21:57.360Z,2.05
2023-05-22T19:24:28.325Z,1.70
2023-05-22T19:26:56.591Z,1.50
2023-05-22T19:29:24.908Z,1.60
2023-05-22T19:31:53.280Z,1.50
2023-05-22T19:34:21.596Z,1.40
2023-05-22T19:36:51.671Z,1.65
2023-05-22T19:39:19.991Z,1.50
2023-05-22T19:41:51.088Z,1.80
2023-05-22T19:44:19.398Z,1.63
2023-05-22T19:46:48.046Z,1.30
2023-05-22T19:49:16.494Z,1.42
2023-05-22T19:51:45.937Z,1.45
2023-05-22T19:54:14.244Z,1.20
2023-05-22T19:56:42.522Z,1.00
2023-05-22T19:59:12.151Z,1.30
2023-05-22T20:01:40.515Z,1.63
2023-05-22T20:04:08.915Z,0.85
2023-05-22T20:06:37.254Z,1.40
2023-05-22T20:09:05.969Z,1.70
2023-05-22T20:11:34.210Z,1.40
2023-05-22T20:14:03.443Z,1.23
2023-05-22T20:16:33.190Z,1.00
2023-05-22T20:19:02.475Z,1.00
2023-05-22T20:21:31.020Z,1.30
2023-05-22T20:23:59.404Z,1.00
2023-05-22T20:26:27.884Z,1.00
2023-05-22T20:28:56.281Z,0.73
2023-05-22T20:31:24.601Z,1.38
2023-05-22T20:33:54.316Z,1.05
2023-05-22T20:36:22.946Z,1.35
2023-05-22T20:38:51.276Z,1.23
2023-05-22T20:41:19.864Z,1.40
2023-05-22T20:43:48.200Z,1.65
2023-05-22T20:46:16.457Z,1.50
2023-05-22T20:48:47.002Z,1.60
2023-05-22T20:51:18.088Z,1.00
2023-05-22T20:53:46.395Z,0.82
2023-05-22T20:56:14.693Z,0.80
2023-05-22T20:58:43.217Z,1.30
2023-05-22T21:01:11.559Z,0.80
2023-05-22T21:03:39.936Z,1.20
2023-05-22T21:06:08.424Z,0.93
2023-05-22T21:08:38.005Z,1.10
2023-05-22T21:11:07.368Z,1.00
2023-05-22T21:13:35.668Z,1.15
2023-05-22T21:16:03.950Z,1.23
2023-05-22T21:18:32.211Z,0.90
2023-05-22T21:21:00.532Z,1.20
2023-05-22T21:23:28.783Z,1.50
2023-05-22T21:25:58.446Z,1.40
2023-05-22T21:28:26.868Z,1.38
2023-05-22T21:30:55.307Z,1.02
2023-05-22T21:33:23.696Z,1.35
2023-05-22T21:35:52.026Z,0.90
2023-05-22T21:38:20.278Z,1.35
2023-05-22T21:40:48.615Z,1.00
2023-05-22T21:43:18.249Z,0.95
2023-05-22T21:45:46.548Z,1.20
2023-05-22T21:48:14.836Z,1.27
2023-05-22T21:50:43.125Z,1.48
2023-05-22T21:53:11.420Z,1.17
2023-05-22T21:55:39.684Z,1.23
2023-05-22T21:58:07.965Z,1.10
2023-05-22T22:00:38.059Z,1.63
2023-05-22T22:03:06.601Z,1.33
2023-05-22T22:05:36.694Z,1.60
2023-05-22T22:08:06.071Z,1.70
2023-05-22T22:10:34.357Z,1.50
2023-05-22T22:13:03.466Z,1.23
2023-05-22T22:15:33.870Z,1.10
2023-05-22T22:18:05.218Z,1.17
2023-05-22T22:23:08.147Z,1.55
2023-05-22T22:25:36.649Z,1.13
2023-05-22T22:28:04.868Z,1.00
2023-05-22T22:30:33.181Z,1.17
2023-05-22T22:33:01.511Z,1.30
2023-05-22T22:35:31.310Z,0.90
2023-05-22T22:37:59.855Z,1.60
2023-05-22T22:40:28.312Z,1.00
2023-05-22T22:42:56.573Z,1.30
2023-05-22T22:45:25.146Z,1.42
2023-05-22T22:47:56.493Z,1.92
2023-05-22T22:50:25.488Z,1.70
2023-05-22T22:52:55.585Z,1.00
2023-05-22T22:55:24.171Z,1.48
2023-05-22T22:57:53.456Z,1.83
2023-05-22T23:00:21.835Z,1.52
2023-05-22T23:02:50.271Z,1.40
2023-05-22T23:05:20.490Z,1.67
2023-05-22T23:07:49.134Z,1.33
2023-05-22T23:10:19.015Z,1.80
2023-05-22T23:12:51.176Z,1.60
2023-05-22T23:15:20.483Z,1.83
2023-05-22T23:17:52.139Z,1.70
2023-05-22T23:20:21.256Z,2.28
2023-05-22T23:22:50.498Z,1.90
2023-05-22T23:25:21.380Z,1.53
2023-05-22T23:27:50.354Z,1.70
2023-05-22T23:30:19.559Z,1.83
2023-05-22T23:32:51.796Z,1.77
2023-05-22T23:35:21.207Z,1.90
2023-05-22T23:37:50.620Z,1.42
2023-05-22T23:40:21.162Z,1.90
2023-05-22T23:42:49.952Z,1.45
2023-05-22T23:45:18.444Z,1.33
2023-05-22T23:47:48.786Z,1.55
2023-05-22T23:50:18.220Z,1.25
2023-05-22T23:52:48.452Z,1.60
2023-05-22T23:55:17.566Z,1.35
2023-05-22T23:57:47.995Z,1.48
